Time,TemperatureF,DewpointF,PressureIn,WindDirection,WindDirectionDegrees,WindSpeedMPH,WindSpeedGustMPH,Humidity,HourlyPrecipIn,Conditions,Clouds,dailyrainin,SoftwareType,DateUTC
2013-02-27 00:05:00,31.3,30.0,30.13,ENE,64,1.0,1.0,95,0.00,,,0.00,vanprod,2013-02-27 05:05:00,
2013-02-27 00:15:00,31.6,30.0,30.12,East,93,1.0,2.0,95,0.00,,,0.00,vanprod,2013-02-27 05:15:00,
2013-02-27 00:25:00,32.1,31.0,30.12,NE,55,2.0,4.0,95,0.00,,,0.00,vanprod,2013-02-27 05:25:00,
2013-02-27 00:35:00,32.4,31.0,30.12,ENE,76,2.0,5.0,94,0.00,,,0.00,vanprod,2013-02-27 05:35:00,
2013-02-27 00:45:00,32.9,31.0,30.12,ENE,71,2.0,3.0,93,0.00,,,0.00,vanprod,2013-02-27 05:45:00,
2013-02-27 00:55:00,33.5,31.0,30.12,East,92,1.0,0.0,92,0.00,,,0.00,vanprod,2013-02-27 05:55:00,
2013-02-27 01:05:00,34.1,31.0,30.11,NE,47,3.0,3.0,88,0.00,,,0.00,vanprod,2013-02-27 06:05:00,
2013-02-27 01:15:00,34.6,31.0,30.11,ENE,58,3.0,3.0,86,0.00,,,0.00,vanprod,2013-02-27 06:15:00,
2013-02-27 01:25:00,35.3,31.0,30.11,NE,48,3.0,3.0,84,0.00,,,0.00,vanprod,2013-02-27 06:25:00,
2013-02-27 01:35:00,35.9,31.0,30.10,NE,34,4.0,5.0,81,0.00,,,0.00,vanprod,2013-02-27 06:35:00,
2013-02-27 01:45:00,36.2,31.0,30.09,ENE,58,3.0,3.0,80,0.00,,,0.00,vanprod,2013-02-27 06:45:00,
2013-02-27 01:55:00,36.5,30.0,30.09,ENE,61,3.0,3.0,78,0.00,,,0.00,vanprod,2013-02-27 06:55:00,
2013-02-27 02:05:00,36.6,30.0,30.07,East,82,4.0,4.0,78,0.00,,,0.00,vanprod,2013-02-27 07:05:00,
2013-02-27 02:15:00,36.6,30.0,30.07,NE,41,3.0,3.0,78,0.00,,,0.00,vanprod,2013-02-27 07:15:00,
2013-02-27 02:25:00,36.8,30.0,30.07,NE,45,3.0,3.0,77,0.00,,,0.00,vanprod,2013-02-27 07:25:00,
2013-02-27 02:35:00,36.9,31.0,30.06,ENE,72,3.0,3.0,79,0.00,,,0.00,vanprod,2013-02-27 07:35:00,
2013-02-27 02:45:00,36.8,31.0,30.06,NE,35,3.0,3.0,79,0.00,,,0.00,vanprod,2013-02-27 07:45:00,
2013-02-27 02:55:00,36.8,31.0,30.06,ENE,75,2.0,2.0,80,0.00,,,0.00,vanprod,2013-02-27 07:55:00,
2013-02-27 03:05:00,37.0,32.0,30.05,NNE,27,3.0,3.0,81,0.00,,,0.00,vanprod,2013-02-27 08:05:00,
2013-02-27 03:15:00,37.0,32.0,30.05,ENE,59,3.0,3.0,82,0.00,,,0.00,vanprod,2013-02-27 08:15:00,
2013-02-27 03:25:00,37.2,33.0,30.05,NE,41,3.0,3.0,83,0.00,,,0.00,vanprod,2013-02-27 08:25:00,
2013-02-27 03:35:00,37.2,33.0,30.05,NE,45,2.0,3.0,84,0.00,,,0.00,vanprod,2013-02-27 08:35:00,
2013-02-27 03:45:00,37.2,33.0,30.05,East,83,1.0,0.0,85,0.00,,,0.00,vanprod,2013-02-27 08:45:00,
2013-02-27 03:55:00,37.2,33.0,30.05,ENE,76,1.0,2.0,86,0.00,,,0.00,vanprod,2013-02-27 08:55:00,
2013-02-27 04:05:00,37.2,34.0,30.05,ENE,61,3.0,3.0,88,0.00,,,0.00,vanprod,2013-02-27 09:05:00,
2013-02-27 04:15:00,37.2,34.0,30.05,East,79,3.0,3.0,88,0.00,,,0.00,vanprod,2013-02-27 09:15:00,
2013-02-27 04:25:00,37.2,34.0,30.05,North,8,2.0,2.0,89,0.00,,,0.00,vanprod,2013-02-27 09:25:00,
2013-02-27 04:35:00,37.0,34.0,30.05,NE,42,2.0,2.0,90,0.00,,,0.00,vanprod,2013-02-27 09:35:00,
2013-02-27 04:45:00,37.0,34.0,30.02,NNE,32,3.0,6.0,90,0.00,,,0.00,vanprod,2013-02-27 09:45:00,
2013-02-27 04:55:00,37.2,34.0,30.02,ENE,78,4.0,10.0,90,0.00,,,0.01,vanprod,2013-02-27 09:55:00,
2013-02-27 05:05:00,37.2,34.0,30.03,ENE,78,3.0,3.0,90,0.00,,,0.01,vanprod,2013-02-27 10:05:00,
2013-02-27 05:15:00,37.0,35.0,30.03,East,80,3.0,3.0,91,0.00,,,0.01,vanprod,2013-02-27 10:15:00,
2013-02-27 05:25:00,37.0,35.0,30.03,North,354,3.0,3.0,92,0.16,,,0.03,vanprod,2013-02-27 10:25:00,
2013-02-27 05:35:00,37.0,35.0,30.01,NE,55,3.0,7.0,92,0.13,,,0.05,vanprod,2013-02-27 10:35:00,
2013-02-27 05:45:00,36.9,35.0,30.01,NNE,30,5.0,5.0,92,0.06,,,0.05,vanprod,2013-02-27 10:45:00,
2013-02-27 05:55:00,36.8,35.0,30.01,NE,47,3.0,6.0,92,0.05,,,0.06,vanprod,2013-02-27 10:55:00,
2013-02-27 06:05:00,36.6,34.0,30.00,NE,56,2.0,2.0,92,0.06,,,0.07,vanprod,2013-02-27 11:05:00,
2013-02-27 06:15:00,36.6,35.0,29.99,ENE,65,2.0,2.0,93,0.00,,,0.08,vanprod,2013-02-27 11:15:00,
2013-02-27 06:25:00,36.8,35.0,29.99,ENE,68,3.0,3.0,93,0.07,,,0.09,vanprod,2013-02-27 11:25:00,
2013-02-27 06:35:00,36.9,35.0,29.98,ENE,59,2.0,0.0,94,0.05,,,0.09,vanprod,2013-02-27 11:35:00,
2013-02-27 06:45:00,37.0,35.0,29.98,ENE,58,3.0,5.0,94,0.00,,,0.10,vanprod,2013-02-27 11:45:00,
2013-02-27 06:55:00,37.3,36.0,29.98,NNE,24,3.0,0.0,94,0.07,,,0.11,vanprod,2013-02-27 11:55:00,
2013-02-27 07:05:00,37.5,36.0,29.96,NE,54,4.0,7.0,94,0.05,,,0.12,vanprod,2013-02-27 12:05:00,
2013-02-27 07:15:00,37.6,36.0,29.96,ENE,64,3.0,3.0,94,0.05,,,0.13,vanprod,2013-02-27 12:15:00,
2013-02-27 07:25:00,37.9,36.0,29.96,NE,55,5.0,5.0,94,0.05,,,0.13,vanprod,2013-02-27 12:25:00,
2013-02-27 07:35:00,37.9,36.0,29.96,NE,45,4.0,4.0,94,0.00,,,0.13,vanprod,2013-02-27 12:35:00,
2013-02-27 07:45:00,37.8,36.0,29.95,NW,323,3.0,3.0,94,0.00,,,0.14,vanprod,2013-02-27 12:45:00,
2013-02-27 07:55:00,37.9,36.0,29.95,NNE,31,3.0,5.0,94,0.05,,,0.15,vanprod,2013-02-27 12:55:00,
2013-02-27 08:05:00,38.0,36.0,29.95,NE,54,3.0,3.0,94,0.04,,,0.15,vanprod,2013-02-27 13:05:00,
2013-02-27 08:15:00,38.2,37.0,29.94,NE,56,4.0,4.0,94,0.07,,,0.17,vanprod,2013-02-27 13:15:00,
2013-02-27 08:25:00,38.3,37.0,29.94,NNE,25,4.0,9.0,94,0.06,,,0.17,vanprod,2013-02-27 13:25:00,
2013-02-27 08:35:00,38.3,37.0,29.93,NE,41,5.0,10.0,94,0.00,,,0.17,vanprod,2013-02-27 13:35:00,
2013-02-27 08:45:00,38.5,37.0,29.93,ENE,58,4.0,6.0,94,0.00,,,0.17,vanprod,2013-02-27 13:45:00,
2013-02-27 08:55:00,38.5,37.0,29.93,NE,41,4.0,9.0,93,0.00,,,0.17,vanprod,2013-02-27 13:55:00,
2013-02-27 09:05:00,38.8,37.0,29.91,ENE,62,6.0,10.0,93,0.00,,,0.17,vanprod,2013-02-27 14:05:00,
2013-02-27 09:15:00,38.8,37.0,29.90,NE,47,6.0,6.0,92,0.00,,,0.18,vanprod,2013-02-27 14:15:00,
2013-02-27 09:25:00,38.9,37.0,29.90,ENE,61,5.0,7.0,92,0.00,,,0.18,vanprod,2013-02-27 14:25:00,
2013-02-27 09:35:00,39.1,37.0,29.90,ENE,76,6.0,6.0,92,0.00,,,0.18,vanprod,2013-02-27 14:35:00,
2013-02-27 09:45:00,39.1,37.0,29.89,NNE,21,5.0,5.0,92,0.00,,,0.19,vanprod,2013-02-27 14:45:00,
2013-02-27 09:55:00,39.3,37.0,29.89,ENE,76,7.0,7.0,91,0.00,,,0.19,vanprod,2013-02-27 14:55:00,
2013-02-27 10:05:00,39.2,37.0,29.89,ENE,66,5.0,5.0,92,0.00,,,0.19,vanprod,2013-02-27 15:05:00,
2013-02-27 10:15:00,39.3,37.0,29.88,North,10,6.0,6.0,92,0.00,,,0.20,vanprod,2013-02-27 15:15:00,
2013-02-27 10:25:00,39.5,37.0,29.88,ENE,65,7.0,12.0,92,0.00,,,0.20,vanprod,2013-02-27 15:25:00,
2013-02-27 10:35:00,39.6,37.0,29.87,NE,55,6.0,6.0,91,0.00,,,0.20,vanprod,2013-02-27 15:35:00,
2013-02-27 10:45:00,39.8,37.0,29.87,ENE,76,6.0,10.0,91,0.00,,,0.21,vanprod,2013-02-27 15:45:00,
2013-02-27 10:55:00,39.6,37.0,29.87,ESE,123,7.0,7.0,90,0.00,,,0.21,vanprod,2013-02-27 15:55:00,
2013-02-27 11:05:00,39.5,37.0,29.86,East,80,6.0,6.0,91,0.00,,,0.21,vanprod,2013-02-27 16:05:00,
2013-02-27 11:15:00,39.5,37.0,29.85,South,179,4.0,4.0,91,0.00,,,0.22,vanprod,2013-02-27 16:15:00,
2013-02-27 11:25:00,39.5,37.0,29.85,NE,35,7.0,7.0,91,0.07,,,0.23,vanprod,2013-02-27 16:25:00,
2013-02-27 11:35:00,39.5,37.0,29.84,SSE,164,6.0,6.0,92,0.07,,,0.24,vanprod,2013-02-27 16:35:00,
2013-02-27 11:45:00,39.3,37.0,29.84,East,85,4.0,6.0,92,0.06,,,0.25,vanprod,2013-02-27 16:45:00,
2013-02-27 11:55:00,39.3,37.0,29.84,ENE,61,6.0,8.0,92,0.04,,,0.26,vanprod,2013-02-27 16:55:00,
2013-02-27 12:05:00,39.3,37.0,29.83,ENE,65,7.0,7.0,92,0.08,,,0.27,vanprod,2013-02-27 17:05:00,
2013-02-27 12:15:00,39.3,37.0,29.82,East,90,7.0,7.0,92,0.14,,,0.29,vanprod,2013-02-27 17:15:00,
2013-02-27 12:25:00,39.2,37.0,29.82,ENE,65,7.0,7.0,92,0.14,,,0.31,vanprod,2013-02-27 17:25:00,
2013-02-27 12:35:00,38.9,37.0,29.82,SE,124,8.0,8.0,92,0.08,,,0.32,vanprod,2013-02-27 17:35:00,
2013-02-27 12:45:00,38.8,37.0,29.80,East,89,8.0,10.0,92,0.10,,,0.34,vanprod,2013-02-27 17:45:00,
2013-02-27 12:55:00,38.3,36.0,29.80,East,93,8.0,12.0,92,0.09,,,0.35,vanprod,2013-02-27 17:55:00,
2013-02-27 13:05:00,37.9,36.0,29.80,NE,54,8.0,8.0,92,0.12,,,0.37,vanprod,2013-02-27 18:05:00,
2013-02-27 13:15:00,37.5,35.0,29.79,ESE,109,9.0,9.0,92,0.12,,,0.39,vanprod,2013-02-27 18:15:00,
2013-02-27 13:25:00,37.0,35.0,29.79,East,85,5.0,7.0,92,0.06,,,0.40,vanprod,2013-02-27 18:25:00,
2013-02-27 13:35:00,36.8,35.0,29.78,NNE,31,9.0,9.0,92,0.10,,,0.40,vanprod,2013-02-27 18:35:00,
2013-02-27 13:45:00,36.2,34.0,29.77,ENE,65,9.0,9.0,92,0.17,,,0.45,vanprod,2013-02-27 18:45:00,
2013-02-27 13:55:00,35.9,34.0,29.77,NE,34,8.0,8.0,93,0.18,,,0.47,vanprod,2013-02-27 18:55:00,
2013-02-27 14:05:00,35.8,34.0,29.76,East,79,6.0,6.0,93,0.17,,,0.49,vanprod,2013-02-27 19:05:00,
2013-02-27 14:15:00,35.6,34.0,29.77,NE,52,5.0,5.0,93,0.14,,,0.50,vanprod,2013-02-27 19:15:00,
2013-02-27 14:25:00,35.3,33.0,29.77,NE,47,7.0,12.0,93,0.15,,,0.52,vanprod,2013-02-27 19:25:00,
2013-02-27 14:35:00,35.2,34.0,29.76,ENE,64,6.0,11.0,94,0.07,,,0.53,vanprod,2013-02-27 19:35:00,
2013-02-27 14:45:00,35.0,33.0,29.76,ENE,73,5.0,5.0,94,0.08,,,0.55,vanprod,2013-02-27 19:45:00,
2013-02-27 14:55:00,34.7,33.0,29.76,NE,52,5.0,5.0,94,0.09,,,0.56,vanprod,2013-02-27 19:55:00,
2013-02-27 15:05:00,34.4,33.0,29.76,NE,51,5.0,5.0,94,0.09,,,0.58,vanprod,2013-02-27 20:05:00,
2013-02-27 15:15:00,34.4,33.0,29.75,NNW,342,4.0,4.0,94,0.08,,,0.59,vanprod,2013-02-27 20:15:00,
2013-02-27 15:25:00,34.4,33.0,29.75,East,100,4.0,6.0,94,0.08,,,0.60,vanprod,2013-02-27 20:25:00,
2013-02-27 15:35:00,34.3,33.0,29.75,North,354,4.0,4.0,94,0.06,,,0.61,vanprod,2013-02-27 20:35:00,
2013-02-27 15:45:00,34.3,33.0,29.75,ENE,65,6.0,6.0,94,0.06,,,0.62,vanprod,2013-02-27 20:45:00,
2013-02-27 15:55:00,34.0,32.0,29.75,NNE,28,5.0,5.0,94,0.05,,,0.63,vanprod,2013-02-27 20:55:00,
2013-02-27 16:05:00,34.0,33.0,29.73,NE,34,4.0,4.0,95,0.06,,,0.64,vanprod,2013-02-27 21:05:00,
2013-02-27 16:15:00,34.0,33.0,29.72,ENE,78,6.0,6.0,95,0.05,,,0.65,vanprod,2013-02-27 21:15:00,
2013-02-27 16:25:00,34.0,33.0,29.72,ENE,61,5.0,5.0,95,0.08,,,0.66,vanprod,2013-02-27 21:25:00,
2013-02-27 16:35:00,33.8,32.0,29.73,ENE,78,3.0,7.0,95,0.04,,,0.66,vanprod,2013-02-27 21:35:00,
2013-02-27 16:45:00,33.8,32.0,29.72,ENE,66,4.0,4.0,95,0.00,,,0.67,vanprod,2013-02-27 21:45:00,
2013-02-27 16:55:00,33.7,32.0,29.72,NE,47,4.0,6.0,95,0.06,,,0.68,vanprod,2013-02-27 21:55:00,
2013-02-27 17:05:00,33.5,32.0,29.71,East,95,5.0,8.0,95,0.00,,,0.68,vanprod,2013-02-27 22:05:00,
2013-02-27 17:15:00,33.4,32.0,29.70,ENE,73,6.0,6.0,95,0.00,,,0.69,vanprod,2013-02-27 22:15:00,
2013-02-27 17:25:00,33.4,32.0,29.70,NNE,21,4.0,4.0,95,0.00,,,0.69,vanprod,2013-02-27 22:25:00,
2013-02-27 17:35:00,33.2,32.0,29.69,NE,54,4.0,10.0,95,0.04,,,0.70,vanprod,2013-02-27 22:35:00,
2013-02-27 17:45:00,33.2,32.0,29.69,NNE,17,5.0,9.0,95,0.04,,,0.70,vanprod,2013-02-27 22:45:00,
2013-02-27 17:55:00,33.4,32.0,29.69,NE,54,4.0,7.0,95,0.00,,,0.71,vanprod,2013-02-27 22:55:00,
2013-02-27 18:05:00,33.4,32.0,29.68,NNE,30,5.0,5.0,95,0.06,,,0.72,vanprod,2013-02-27 23:05:00,
2013-02-27 18:15:00,33.4,32.0,29.68,ENE,59,4.0,4.0,95,0.05,,,0.72,vanprod,2013-02-27 23:15:00,
2013-02-27 18:25:00,33.5,32.0,29.68,NE,49,4.0,4.0,95,0.04,,,0.73,vanprod,2013-02-27 23:25:00,
2013-02-27 18:35:00,33.5,32.0,29.68,NE,55,5.0,5.0,95,0.06,,,0.74,vanprod,2013-02-27 23:35:00,
2013-02-27 18:45:00,33.5,32.0,29.67,NE,54,5.0,5.0,95,0.04,,,0.74,vanprod,2013-02-27 23:45:00,
2013-02-27 18:55:00,33.5,32.0,29.67,NE,56,4.0,4.0,95,0.04,,,0.75,vanprod,2013-02-27 23:55:00,
2013-02-27 19:05:00,33.7,32.0,29.67,NE,49,4.0,4.0,95,0.06,,,0.76,vanprod,2013-02-28 00:05:00,
2013-02-27 19:15:00,33.8,32.0,29.65,NE,42,2.0,0.0,95,0.04,,,0.77,vanprod,2013-02-28 00:15:00,
2013-02-27 19:25:00,33.7,32.0,29.65,NE,35,4.0,7.0,95,0.06,,,0.78,vanprod,2013-02-28 00:25:00,
2013-02-27 19:35:00,33.5,32.0,29.64,NE,48,5.0,5.0,95,0.04,,,0.78,vanprod,2013-02-28 00:35:00,
2013-02-27 19:45:00,33.5,32.0,29.63,NE,49,4.0,7.0,95,0.00,,,0.79,vanprod,2013-02-28 00:45:00,
2013-02-27 19:55:00,33.7,32.0,29.63,ENE,69,4.0,4.0,95,0.06,,,0.80,vanprod,2013-02-28 00:55:00,
2013-02-27 20:05:00,33.5,32.0,29.62,NE,42,3.0,10.0,95,0.04,,,0.80,vanprod,2013-02-28 01:05:00,
2013-02-27 20:15:00,33.5,32.0,29.62,NE,38,4.0,5.0,96,0.00,,,0.81,vanprod,2013-02-28 01:15:00,
2013-02-27 20:25:00,33.7,33.0,29.62,East,88,3.0,3.0,96,0.06,,,0.82,vanprod,2013-02-28 01:25:00,
2013-02-27 20:35:00,33.8,33.0,29.61,ENE,76,4.0,4.0,96,0.05,,,0.82,vanprod,2013-02-28 01:35:00,
2013-02-27 20:45:00,34.1,33.0,29.59,NE,47,4.0,6.0,96,0.10,,,0.84,vanprod,2013-02-28 01:45:00,
2013-02-27 20:55:00,34.3,33.0,29.59,North,3,4.0,4.0,96,0.07,,,0.85,vanprod,2013-02-28 01:55:00,
2013-02-27 21:05:00,34.4,33.0,29.58,NE,37,4.0,4.0,96,0.06,,,0.86,vanprod,2013-02-28 02:05:00,
2013-02-27 21:15:00,34.4,33.0,29.58,North,8,3.0,3.0,96,0.10,,,0.88,vanprod,2013-02-28 02:15:00,
2013-02-27 21:25:00,34.4,33.0,29.58,ENE,62,2.0,2.0,96,0.06,,,0.89,vanprod,2013-02-28 02:25:00,
2013-02-27 21:35:00,34.4,33.0,29.57,NNE,20,2.0,4.0,96,0.07,,,0.91,vanprod,2013-02-28 02:35:00,
2013-02-27 21:45:00,34.9,34.0,29.56,NNW,333,3.0,4.0,96,0.10,,,0.92,vanprod,2013-02-28 02:45:00,
2013-02-27 21:55:00,35.2,34.0,29.56,North,357,2.0,0.0,96,0.13,,,0.94,vanprod,2013-02-28 02:55:00,
2013-02-27 22:05:00,35.3,34.0,29.56,NNE,20,1.0,2.0,96,0.12,,,0.96,vanprod,2013-02-28 03:05:00,
2013-02-27 22:15:00,35.9,35.0,29.56,NNE,13,2.0,0.0,96,0.07,,,0.97,vanprod,2013-02-28 03:15:00,
2013-02-27 22:25:00,36.2,35.0,29.56,NNE,17,2.0,2.0,96,0.08,,,0.99,vanprod,2013-02-28 03:25:00,
2013-02-27 22:35:00,36.0,35.0,29.55,NNW,344,2.0,2.0,96,0.08,,,1.01,vanprod,2013-02-28 03:35:00,
2013-02-27 22:45:00,35.6,35.0,29.54,NNW,347,3.0,8.0,96,0.11,,,1.02,vanprod,2013-02-28 03:45:00,
2013-02-27 22:55:00,35.3,34.0,29.54,NNW,330,3.0,6.0,96,0.11,,,1.04,vanprod,2013-02-28 03:55:00,
2013-02-27 23:05:00,35.0,34.0,29.53,North,11,3.0,4.0,96,0.07,,,1.05,vanprod,2013-02-28 04:05:00,
2013-02-27 23:15:00,34.9,34.0,29.53,NNE,17,4.0,5.0,96,0.08,,,1.06,vanprod,2013-02-28 04:15:00,
2013-02-27 23:25:00,34.9,34.0,29.52,NE,40,4.0,4.0,96,0.08,,,1.08,vanprod,2013-02-28 04:25:00,
2013-02-27 23:35:00,34.7,34.0,29.51,North,357,3.0,4.0,96,0.06,,,1.08,vanprod,2013-02-28 04:35:00,
2013-02-27 23:45:00,34.7,34.0,29.50,North,359,3.0,6.0,96,0.04,,,1.09,vanprod,2013-02-28 04:45:00,
2013-02-27 23:55:00,34.6,34.0,29.50,NE,41,4.0,4.0,96,0.04,,,1.10,vanprod,2013-02-28 04:55:00,